sensor_id;sensor_type;location;lat;lon;timestamp;P1;durP1;ratioP1;P2;durP2;ratioP2
48993;SDS011;34804;49.214;12.276;2022-10-31T00:01:18;19.52;;;7.07;;
48993;SDS011;34804;49.214;12.276;2022-10-31T00:04:05;18.48;;;6.68;;
48993;SDS011;34804;49.214;12.276;2022-10-31T00:06:33;20.63;;;5.72;;
48993;SDS011;34804;49.214;12.276;2022-10-31T00:09:00;14.15;;;5.68;;
48993;SDS011;34804;49.214;12.276;2022-10-31T00:11:28;25.52;;;6.32;;
48993;SDS011;34804;49.214;12.276;2022-10-31T00:13:58;16.92;;;6.88;;
48993;SDS011;34804;49.214;12.276;2022-10-31T00:16:26;23.30;;;7.13;;
48993;SDS011;34804;49.214;12.276;2022-10-31T00:18:54;19.40;;;6.03;;
48993;SDS011;34804;49.214;12.276;2022-10-31T00:21:22;23.95;;;7.18;;
48993;SDS011;34804;49.214;12.276;2022-10-31T00:23:50;19.35;;;7.10;;
48993;SDS011;34804;49.214;12.276;2022-10-31T00:26:17;22.55;;;6.70;;
48993;SDS011;34804;49.214;12.276;2022-10-31T00:28:44;19.02;;;6.88;;
48993;SDS011;34804;49.214;12.276;2022-10-31T00:31:11;22.10;;;7.05;;
48993;SDS011;34804;49.214;12.276;2022-10-31T00:33:39;22.60;;;8.35;;
48993;SDS011;34804;49.214;12.276;2022-10-31T00:36:07;19.80;;;8.23;;
48993;SDS011;34804;49.214;12.276;2022-10-31T00:38:38;24.90;;;8.63;;
48993;SDS011;34804;49.214;12.276;2022-10-31T00:41:05;24.98;;;9.25;;
48993;SDS011;34804;49.214;12.276;2022-10-31T00:43:32;25.67;;;10.48;;
48993;SDS011;34804;49.214;12.276;2022-10-31T00:45:58;26.77;;;10.38;;
48993;SDS011;34804;49.214;12.276;2022-10-31T00:48:25;24.50;;;10.38;;
48993;SDS011;34804;49.214;12.276;2022-10-31T00:50:52;21.63;;;9.80;;
48993;SDS011;34804;49.214;12.276;2022-10-31T00:53:19;28.48;;;10.13;;
48993;SDS011;34804;49.214;12.276;2022-10-31T00:55:46;22.75;;;9.80;;
48993;SDS011;34804;49.214;12.276;2022-10-31T00:58:12;25.27;;;9.07;;
48993;SDS011;34804;49.214;12.276;2022-10-31T01:00:46;28.13;;;10.10;;
48993;SDS011;34804;49.214;12.276;2022-10-31T01:03:21;24.15;;;9.00;;
48993;SDS011;34804;49.214;12.276;2022-10-31T01:06:08;30.05;;;8.40;;
48993;SDS011;34804;49.214;12.276;2022-10-31T01:08:38;23.40;;;8.88;;
48993;SDS011;34804;49.214;12.276;2022-10-31T01:11:06;20.80;;;6.38;;
48993;SDS011;34804;49.214;12.276;2022-10-31T01:13:34;16.77;;;7.68;;
48993;SDS011;34804;49.214;12.276;2022-10-31T01:16:02;18.67;;;8.15;;
48993;SDS011;34804;49.214;12.276;2022-10-31T01:18:30;18.50;;;8.45;;
48993;SDS011;34804;49.214;12.276;2022-10-31T01:23:31;23.05;;;10.57;;
48993;SDS011;34804;49.214;12.276;2022-10-31T01:26:03;21.90;;;11.95;;
48993;SDS011;34804;49.214;12.276;2022-10-31T01:28:35;24.90;;;11.05;;
48993;SDS011;34804;49.214;12.276;2022-10-31T01:31:04;22.83;;;10.55;;
48993;SDS011;34804;49.214;12.276;2022-10-31T01:33:33;29.38;;;10.38;;
48993;SDS011;34804;49.214;12.276;2022-10-31T01:36:10;20.77;;;9.98;;
48993;SDS011;34804;49.214;12.276;2022-10-31T01:38:42;25.92;;;9.30;;
48993;SDS011;34804;49.214;12.276;2022-10-31T01:41:09;21.25;;;9.43;;
48993;SDS011;34804;49.214;12.276;2022-10-31T01:43:57;19.88;;;8.88;;
48993;SDS011;34804;49.214;12.276;2022-10-31T01:46:51;18.88;;;8.23;;
48993;SDS011;34804;49.214;12.276;2022-10-31T01:52:22;24.80;;;8.57;;
48993;SDS011;34804;49.214;12.276;2022-10-31T01:55:04;20.20;;;8.95;;
48993;SDS011;34804;49.214;12.276;2022-10-31T01:57:35;20.42;;;9.07;;
48993;SDS011;34804;49.214;12.276;2022-10-31T02:00:06;25.13;;;9.63;;
48993;SDS011;34804;49.214;12.276;2022-10-31T02:02:35;20.60;;;9.05;;
48993;SDS011;34804;49.214;12.276;2022-10-31T02:05:04;20.77;;;9.20;;
48993;SDS011;34804;49.214;12.276;2022-10-31T02:07:45;20.88;;;9.48;;
48993;SDS011;34804;49.214;12.276;2022-10-31T02:10:20;21.95;;;9.38;;
48993;SDS011;34804;49.214;12.276;2022-10-31T02:12:49;22.15;;;8.93;;
48993;SDS011;34804;49.214;12.276;2022-10-31T02:15:18;22.08;;;8.95;;
48993;SDS011;34804;49.214;12.276;2022-10-31T02:17:46;20.20;;;9.77;;
48993;SDS011;34804;49.214;12.276;2022-10-31T02:20:23;18.20;;;7.32;;
48993;SDS011;34804;49.214;12.276;2022-10-31T02:25:46;19.77;;;8.05;;
48993;SDS011;34804;49.214;12.276;2022-10-31T02:37:07;16.15;;;8.70;;
48993;SDS011;34804;49.214;12.276;2022-10-31T02:42:22;20.88;;;8.20;;
48993;SDS011;34804;49.214;12.276;2022-10-31T02:45:08;19.38;;;9.73;;
48993;SDS011;34804;49.214;12.276;2022-10-31T02:47:52;16.38;;;8.85;;
48993;SDS011;34804;49.214;12.276;2022-10-31T02:50:29;14.60;;;8.50;;
48993;SDS011;34804;49.214;12.276;2022-10-31T02:53:00;17.60;;;8.00;;
48993;SDS011;34804;49.214;12.276;2022-10-31T02:57:56;20.63;;;7.25;;
48993;SDS011;34804;49.214;12.276;2022-10-31T03:00:37;16.92;;;7.40;;
48993;SDS011;34804;49.214;12.276;2022-10-31T03:03:17;14.90;;;6.13;;
48993;SDS011;34804;49.214;12.276;2022-10-31T03:12:10;15.00;;;6.35;;
48993;SDS011;34804;49.214;12.276;2022-10-31T03:15:19;17.55;;;7.82;;
48993;SDS011;34804;49.214;12.276;2022-10-31T03:20:27;23.35;;;10.65;;
48993;SDS011;34804;49.214;12.276;2022-10-31T03:23:18;19.67;;;10.07;;
48993;SDS011;34804;49.214;12.276;2022-10-31T03:25:48;17.42;;;9.13;;
48993;SDS011;34804;49.214;12.276;2022-10-31T03:28:16;17.38;;;8.93;;
48993;SDS011;34804;49.214;12.276;2022-10-31T03:30:48;22.02;;;9.40;;
48993;SDS011;34804;49.214;12.276;2022-10-31T03:33:17;16.33;;;8.23;;
48993;SDS011;34804;49.214;12.276;2022-10-31T03:35:50;17.58;;;7.93;;
48993;SDS011;34804;49.214;12.276;2022-10-31T03:38:21;15.57;;;7.35;;
48993;SDS011;34804;49.214;12.276;2022-10-31T03:40:49;15.57;;;6.90;;
48993;SDS011;34804;49.214;12.276;2022-10-31T03:43:21;16.75;;;6.65;;
48993;SDS011;34804;49.214;12.276;2022-10-31T03:45:52;19.95;;;6.40;;
48993;SDS011;34804;49.214;12.276;2022-10-31T03:48:19;22.13;;;7.35;;
48993;SDS011;34804;49.214;12.276;2022-10-31T03:53:38;12.68;;;6.20;;
48993;SDS011;34804;49.214;12.276;2022-10-31T03:56:19;18.38;;;9.73;;
48993;SDS011;34804;49.214;12.276;2022-10-31T03:59:09;17.00;;;8.93;;
48993;SDS011;34804;49.214;12.276;2022-10-31T04:01:41;18.67;;;9.73;;
48993;SDS011;34804;49.214;12.276;2022-10-31T04:04:13;19.52;;;8.23;;
48993;SDS011;34804;49.214;12.276;2022-10-31T04:06:41;18.42;;;8.30;;
48993;SDS011;34804;49.214;12.276;2022-10-31T04:09:13;19.45;;;7.97;;
48993;SDS011;34804;49.214;12.276;2022-10-31T04:11:42;16.23;;;7.70;;
48993;SDS011;34804;49.214;12.276;2022-10-31T04:14:12;14.07;;;6.10;;
48993;SDS011;34804;49.214;12.276;2022-10-31T04:16:40;17.20;;;6.75;;
48993;SDS011;34804;49.214;12.276;2022-10-31T04:19:10;13.30;;;6.43;;
48993;SDS011;34804;49.214;12.276;2022-10-31T04:21:38;17.17;;;7.07;;
48993;SDS011;34804;49.214;12.276;2022-10-31T04:24:05;16.70;;;7.15;;
48993;SDS011;34804;49.214;12.276;2022-10-31T04:26:32;19.00;;;7.95;;
48993;SDS011;34804;49.214;12.276;2022-10-31T04:28:58;15.40;;;8.50;;
48993;SDS011;34804;49.214;12.276;2022-10-31T04:31:25;20.75;;;10.95;;
48993;SDS011;34804;49.214;12.276;2022-10-31T04:33:52;25.08;;;11.15;;
48993;SDS011;34804;49.214;12.276;2022-10-31T04:36:19;26.00;;;11.05;;
48993;SDS011;34804;49.214;12.276;2022-10-31T04:38:46;26.83;;;12.23;;
48993;SDS011;34804;49.214;12.276;2022-10-31T04:41:13;16.98;;;10.07;;
48993;SDS011;34804;49.214;12.276;2022-10-31T04:43:40;26.55;;;10.45;;
48993;SDS011;34804;49.214;12.276;2022-10-31T04:46:06;19.50;;;9.63;;
48993;SDS011;34804;49.214;12.276;2022-10-31T04:48:33;17.55;;;9.70;;
48993;SDS011;34804;49.214;12.276;2022-10-31T04:51:00;21.52;;;9.35;;
48993;SDS011;34804;49.214;12.276;2022-10-31T04:53:28;23.20;;;10.48;;
48993;SDS011;34804;49.214;12.276;2022-10-31T04:55:57;21.58;;;9.95;;
48993;SDS011;34804;49.214;12.276;2022-10-31T04:58:25;20.40;;;10.50;;
48993;SDS011;34804;49.214;12.276;2022-10-31T05:00:54;21.73;;;10.13;;
48993;SDS011;34804;49.214;12.276;2022-10-31T05:03:22;19.58;;;9.73;;
48993;SDS011;34804;49.214;12.276;2022-10-31T05:05:49;21.90;;;10.20;;
48993;SDS011;34804;49.214;12.276;2022-10-31T05:08:16;16.83;;;9.75;;
48993;SDS011;34804;49.214;12.276;2022-10-31T05:10:43;22.27;;;9.70;;
48993;SDS011;34804;49.214;12.276;2022-10-31T05:13:10;27.83;;;9.50;;
48993;SDS011;34804;49.214;12.276;2022-10-31T05:15:37;13.70;;;8.65;;
48993;SDS011;34804;49.214;12.276;2022-10-31T05:18:04;23.15;;;9.00;;
48993;SDS011;34804;49.214;12.276;2022-10-31T05:20:31;17.65;;;9.23;;
48993;SDS011;34804;49.214;12.276;2022-10-31T05:22:58;13.43;;;8.63;;
48993;SDS011;34804;49.214;12.276;2022-10-31T05:25:26;20.63;;;8.68;;
48993;SDS011;34804;49.214;12.276;2022-10-31T05:27:55;19.20;;;8.60;;
48993;SDS011;34804;49.214;12.276;2022-10-31T05:30:24;19.08;;;9.75;;
48993;SDS011;34804;49.214;12.276;2022-10-31T05:32:56;22.15;;;8.57;;
48993;SDS011;34804;49.214;12.276;2022-10-31T05:35:24;17.92;;;9.02;;
48993;SDS011;34804;49.214;12.276;2022-10-31T05:37:53;17.05;;;9.13;;
48993;SDS011;34804;49.214;12.276;2022-10-31T05:40:20;15.05;;;8.52;;
48993;SDS011;34804;49.214;12.276;2022-10-31T05:42:50;15.60;;;8.00;;
48993;SDS011;34804;49.214;12.276;2022-10-31T05:45:18;15.98;;;8.77;;
48993;SDS011;34804;49.214;12.276;2022-10-31T05:47:56;15.10;;;7.45;;
48993;SDS011;34804;49.214;12.276;2022-10-31T05:50:26;14.27;;;8.10;;
48993;SDS011;34804;49.214;12.276;2022-10-31T05:53:04;13.38;;;7.00;;
48993;SDS011;34804;49.214;12.276;2022-10-31T05:55:31;13.68;;;6.78;;
48993;SDS011;34804;49.214;12.276;2022-10-31T05:57:59;13.68;;;8.20;;
48993;SDS011;34804;49.214;12.276;2022-10-31T06:00:27;12.60;;;6.60;;
48993;SDS011;34804;49.214;12.276;2022-10-31T06:03:02;17.83;;;7.18;;
48993;SDS011;34804;49.214;12.276;2022-10-31T06:05:30;15.10;;;6.72;;
48993;SDS011;34804;49.214;12.276;2022-10-31T06:07:58;12.20;;;6.68;;
48993;SDS011;34804;49.214;12.276;2022-10-31T06:10:25;11.00;;;6.47;;
48993;SDS011;34804;49.214;12.276;2022-10-31T06:12:52;9.70;;;6.28;;
48993;SDS011;34804;49.214;12.276;2022-10-31T06:15:19;15.65;;;6.75;;
48993;SDS011;34804;49.214;12.276;2022-10-31T06:17:59;13.63;;;6.50;;
48993;SDS011;34804;49.214;12.276;2022-10-31T06:20:29;16.30;;;6.72;;
48993;SDS011;34804;49.214;12.276;2022-10-31T06:22:56;13.55;;;6.55;;
48993;SDS011;34804;49.214;12.276;2022-10-31T06:25:23;14.07;;;7.00;;
48993;SDS011;34804;49.214;12.276;2022-10-31T06:27:50;15.63;;;7.60;;
48993;SDS011;34804;49.214;12.276;2022-10-31T06:30:17;37.03;;;8.18;;
48993;SDS011;34804;49.214;12.276;2022-10-31T06:32:43;29.27;;;8.27;;
48993;SDS011;34804;49.214;12.276;2022-10-31T06:35:10;21.30;;;7.20;;
48993;SDS011;34804;49.214;12.276;2022-10-31T06:37:37;28.88;;;6.85;;
48993;SDS011;34804;49.214;12.276;2022-10-31T06:40:04;27.08;;;7.97;;
48993;SDS011;34804;49.214;12.276;2022-10-31T06:42:32;57.10;;;8.95;;
48993;SDS011;34804;49.214;12.276;2022-10-31T06:44:58;59.95;;;8.93;;
48993;SDS011;34804;49.214;12.276;2022-10-31T06:47:25;36.72;;;7.97;;
48993;SDS011;34804;49.214;12.276;2022-10-31T06:49:52;30.45;;;8.90;;
48993;SDS011;34804;49.214;12.276;2022-10-31T06:52:19;31.13;;;8.90;;
48993;SDS011;34804;49.214;12.276;2022-10-31T06:54:45;18.90;;;7.72;;
48993;SDS011;34804;49.214;12.276;2022-10-31T06:57:12;17.23;;;8.05;;
48993;SDS011;34804;49.214;12.276;2022-10-31T06:59:39;15.65;;;7.90;;
48993;SDS011;34804;49.214;12.276;2022-10-31T07:02:07;21.45;;;8.38;;
48993;SDS011;34804;49.214;12.276;2022-10-31T07:04:36;40.75;;;8.02;;
48993;SDS011;34804;49.214;12.276;2022-10-31T07:07:03;25.98;;;7.47;;
48993;SDS011;34804;49.214;12.276;2022-10-31T07:09:30;8.85;;;5.60;;
48993;SDS011;34804;49.214;12.276;2022-10-31T07:11:57;12.65;;;7.22;;
48993;SDS011;34804;49.214;12.276;2022-10-31T07:14:24;15.63;;;6.80;;
48993;SDS011;34804;49.214;12.276;2022-10-31T07:16:51;25.58;;;6.97;;
48993;SDS011;34804;49.214;12.276;2022-10-31T07:19:17;56.67;;;8.23;;
48993;SDS011;34804;49.214;12.276;2022-10-31T07:21:44;15.55;;;6.60;;
48993;SDS011;34804;49.214;12.276;2022-10-31T07:24:11;18.55;;;6.90;;
48993;SDS011;34804;49.214;12.276;2022-10-31T07:26:38;18.92;;;6.82;;
48993;SDS011;34804;49.214;12.276;2022-10-31T07:29:05;11.75;;;5.72;;
48993;SDS011;34804;49.214;12.276;2022-10-31T07:31:31;10.85;;;6.07;;
48993;SDS011;34804;49.214;12.276;2022-10-31T07:33:58;14.90;;;6.80;;
48993;SDS011;34804;49.214;12.276;2022-10-31T07:36:25;15.23;;;6.85;;
48993;SDS011;34804;49.214;12.276;2022-10-31T07:38:52;14.77;;;7.30;;
48993;SDS011;34804;49.214;12.276;2022-10-31T07:41:18;19.45;;;10.07;;
48993;SDS011;34804;49.214;12.276;2022-10-31T07:43:45;16.00;;;9.52;;
48993;SDS011;34804;49.214;12.276;2022-10-31T07:46:12;16.20;;;9.38;;
48993;SDS011;34804;49.214;12.276;2022-10-31T07:48:39;22.20;;;9.90;;
48993;SDS011;34804;49.214;12.276;2022-10-31T07:51:05;17.83;;;9.48;;
48993;SDS011;34804;49.214;12.276;2022-10-31T07:53:33;18.75;;;10.60;;
48993;SDS011;34804;49.214;12.276;2022-10-31T07:55:59;20.15;;;9.43;;
48993;SDS011;34804;49.214;12.276;2022-10-31T07:58:26;18.85;;;10.18;;
48993;SDS011;34804;49.214;12.276;2022-10-31T08:00:53;16.65;;;8.45;;
48993;SDS011;34804;49.214;12.276;2022-10-31T08:03:20;14.73;;;8.60;;
48993;SDS011;34804;49.214;12.276;2022-10-31T08:05:47;16.08;;;8.52;;
48993;SDS011;34804;49.214;12.276;2022-10-31T08:08:14;19.75;;;9.23;;
48993;SDS011;34804;49.214;12.276;2022-10-31T08:10:41;15.07;;;8.85;;
48993;SDS011;34804;49.214;12.276;2022-10-31T08:13:09;18.42;;;9.68;;
48993;SDS011;34804;49.214;12.276;2022-10-31T08:15:38;17.95;;;8.40;;
48993;SDS011;34804;49.214;12.276;2022-10-31T08:18:14;20.00;;;9.73;;
48993;SDS011;34804;49.214;12.276;2022-10-31T08:23:09;19.38;;;9.05;;
48993;SDS011;34804;49.214;12.276;2022-10-31T08:25:37;16.48;;;9.05;;
48993;SDS011;34804;49.214;12.276;2022-10-31T08:28:05;13.77;;;8.65;;
48993;SDS011;34804;49.214;12.276;2022-10-31T08:30:34;13.27;;;7.97;;
48993;SDS011;34804;49.214;12.276;2022-10-31T08:35:35;12.63;;;7.70;;
48993;SDS011;34804;49.214;12.276;2022-10-31T08:38:02;13.63;;;7.72;;
48993;SDS011;34804;49.214;12.276;2022-10-31T08:40:30;14.57;;;8.20;;
48993;SDS011;34804;49.214;12.276;2022-10-31T08:42:59;12.98;;;7.28;;
48993;SDS011;34804;49.214;12.276;2022-10-31T08:45:29;14.73;;;7.97;;
48993;SDS011;34804;49.214;12.276;2022-10-31T08:48:01;15.32;;;7.68;;
48993;SDS011;34804;49.214;12.276;2022-10-31T08:50:31;14.07;;;7.93;;
48993;SDS011;34804;49.214;12.276;2022-10-31T08:53:03;14.05;;;7.90;;
48993;SDS011;34804;49.214;12.276;2022-10-31T08:55:36;11.98;;;7.80;;
48993;SDS011;34804;49.214;12.276;2022-10-31T08:58:04;14.82;;;7.97;;
48993;SDS011;34804;49.214;12.276;2022-10-31T09:00:33;13.23;;;8.25;;
48993;SDS011;34804;49.214;12.276;2022-10-31T09:03:01;11.75;;;8.00;;
48993;SDS011;34804;49.214;12.276;2022-10-31T09:05:35;13.32;;;8.40;;
48993;SDS011;34804;49.214;12.276;2022-10-31T09:08:02;11.57;;;7.75;;
48993;SDS011;34804;49.214;12.276;2022-10-31T09:10:31;12.27;;;7.63;;
48993;SDS011;34804;49.214;12.276;2022-10-31T09:13:04;15.20;;;7.55;;
48993;SDS011;34804;49.214;12.276;2022-10-31T09:15:36;15.38;;;6.72;;
48993;SDS011;34804;49.214;12.276;2022-10-31T09:18:05;10.98;;;6.47;;
48993;SDS011;34804;49.214;12.276;2022-10-31T09:20:33;10.63;;;6.25;;
48993;SDS011;34804;49.214;12.276;2022-10-31T09:23:02;11.25;;;6.70;;
48993;SDS011;34804;49.214;12.276;2022-10-31T09:25:34;10.23;;;6.57;;
48993;SDS011;34804;49.214;12.276;2022-10-31T09:28:02;13.52;;;7.18;;
48993;SDS011;34804;49.214;12.276;2022-10-31T09:30:31;12.30;;;7.15;;
48993;SDS011;34804;49.214;12.276;2022-10-31T09:33:00;10.55;;;6.45;;
48993;SDS011;34804;49.214;12.276;2022-10-31T09:35:29;11.63;;;6.95;;
48993;SDS011;34804;49.214;12.276;2022-10-31T09:37:56;11.15;;;6.50;;
48993;SDS011;34804;49.214;12.276;2022-10-31T09:40:35;14.77;;;6.93;;
48993;SDS011;34804;49.214;12.276;2022-10-31T09:48:17;14.43;;;7.25;;
48993;SDS011;34804;49.214;12.276;2022-10-31T09:50:59;11.13;;;6.47;;
48993;SDS011;34804;49.214;12.276;2022-10-31T09:53:40;11.20;;;6.07;;
48993;SDS011;34804;49.214;12.276;2022-10-31T09:56:17;10.77;;;6.03;;
48993;SDS011;34804;49.214;12.276;2022-10-31T09:58:47;12.10;;;6.00;;
48993;SDS011;34804;49.214;12.276;2022-10-31T10:04:01;11.10;;;5.40;;
48993;SDS011;34804;49.214;12.276;2022-10-31T10:06:49;12.52;;;5.60;;
48993;SDS011;34804;49.214;12.276;2022-10-31T10:09:19;10.25;;;5.43;;
48993;SDS011;34804;49.214;12.276;2022-10-31T10:11:57;12.73;;;5.55;;
48993;SDS011;34804;49.214;12.276;2022-10-31T10:14:47;11.60;;;4.97;;
48993;SDS011;34804;49.214;12.276;2022-10-31T10:17:20;15.38;;;6.18;;
48993;SDS011;34804;49.214;12.276;2022-10-31T10:20:11;10.07;;;5.35;;
48993;SDS011;34804;49.214;12.276;2022-10-31T10:22:48;12.82;;;5.25;;
48993;SDS011;34804;49.214;12.276;2022-10-31T10:25:39;10.82;;;5.57;;
48993;SDS011;34804;49.214;12.276;2022-10-31T10:30:50;8.73;;;5.55;;
48993;SDS011;34804;49.214;12.276;2022-10-31T10:33:36;9.98;;;5.32;;
48993;SDS011;34804;49.214;12.276;2022-10-31T10:36:13;10.68;;;4.82;;
48993;SDS011;34804;49.214;12.276;2022-10-31T10:38:51;9.23;;;5.05;;
48993;SDS011;34804;49.214;12.276;2022-10-31T10:41:22;15.90;;;5.75;;
48993;SDS011;34804;49.214;12.276;2022-10-31T10:43:52;9.50;;;5.32;;
48993;SDS011;34804;49.214;12.276;2022-10-31T10:46:40;12.60;;;5.20;;
48993;SDS011;34804;49.214;12.276;2022-10-31T10:49:49;10.50;;;4.80;;
48993;SDS011;34804;49.214;12.276;2022-10-31T10:58:09;16.33;;;5.05;;
48993;SDS011;34804;49.214;12.276;2022-10-31T11:00:46;13.10;;;5.00;;
48993;SDS011;34804;49.214;12.276;2022-10-31T11:03:14;11.38;;;4.60;;
48993;SDS011;34804;49.214;12.276;2022-10-31T11:05:56;10.88;;;5.03;;
48993;SDS011;34804;49.214;12.276;2022-10-31T11:08:32;14.02;;;5.35;;
48993;SDS011;34804;49.214;12.276;2022-10-31T11:13:30;14.88;;;4.55;;
48993;SDS011;34804;49.214;12.276;2022-10-31T11:18:43;15.38;;;4.35;;
48993;SDS011;34804;49.214;12.276;2022-10-31T11:21:46;10.38;;;4.28;;
48993;SDS011;34804;49.214;12.276;2022-10-31T11:26:35;13.68;;;4.45;;
48993;SDS011;34804;49.214;12.276;2022-10-31T11:29:23;10.73;;;4.20;;
48993;SDS011;34804;49.214;12.276;2022-10-31T11:31:52;12.48;;;4.07;;
48993;SDS011;34804;49.214;12.276;2022-10-31T11:34:25;14.43;;;4.47;;
48993;SDS011;34804;49.214;12.276;2022-10-31T11:37:18;11.80;;;4.07;;
48993;SDS011;34804;49.214;12.276;2022-10-31T11:39:58;15.57;;;3.90;;
48993;SDS011;34804;49.214;12.276;2022-10-31T11:44:55;14.80;;;3.85;;
48993;SDS011;34804;49.214;12.276;2022-10-31T11:47:27;9.05;;;3.63;;
48993;SDS011;34804;49.214;12.276;2022-10-31T11:49:56;10.40;;;4.05;;
48993;SDS011;34804;49.214;12.276;2022-10-31T11:52:26;12.10;;;3.63;;
48993;SDS011;34804;49.214;12.276;2022-10-31T11:55:00;8.77;;;3.85;;
48993;SDS011;34804;49.214;12.276;2022-10-31T11:57:46;10.98;;;3.92;;
48993;SDS011;34804;49.214;12.276;2022-10-31T12:02:48;14.38;;;4.53;;
48993;SDS011;34804;49.214;12.276;2022-10-31T12:05:23;14.00;;;4.05;;
48993;SDS011;34804;49.214;12.276;2022-10-31T12:07:55;13.63;;;3.78;;
48993;SDS011;34804;49.214;12.276;2022-10-31T12:10:33;12.20;;;3.72;;
48993;SDS011;34804;49.214;12.276;2022-10-31T12:16:15;12.23;;;3.78;;
48993;SDS011;34804;49.214;12.276;2022-10-31T12:18:53;11.60;;;4.05;;
48993;SDS011;34804;49.214;12.276;2022-10-31T12:24:24;9.57;;;3.45;;
48993;SDS011;34804;49.214;12.276;2022-10-31T12:35:21;9.70;;;3.78;;
48993;SDS011;34804;49.214;12.276;2022-10-31T12:41:17;13.93;;;3.72;;
48993;SDS011;34804;49.214;12.276;2022-10-31T12:57:17;16.08;;;3.90;;
48993;SDS011;34804;49.214;12.276;2022-10-31T13:00:04;9.40;;;3.55;;
48993;SDS011;34804;49.214;12.276;2022-10-31T13:02:39;9.52;;;3.60;;
48993;SDS011;34804;49.214;12.276;2022-10-31T13:05:28;9.75;;;3.22;;
48993;SDS011;34804;49.214;12.276;2022-10-31T13:08:17;9.98;;;3.67;;
48993;SDS011;34804;49.214;12.276;2022-10-31T13:10:50;14.57;;;3.95;;
48993;SDS011;34804;49.214;12.276;2022-10-31T13:13:39;11.57;;;3.70;;
48993;SDS011;34804;49.214;12.276;2022-10-31T13:16:31;10.30;;;3.28;;
48993;SDS011;34804;49.214;12.276;2022-10-31T13:22:09;8.80;;;3.45;;
48993;SDS011;34804;49.214;12.276;2022-10-31T13:30:29;13.10;;;3.60;;
48993;SDS011;34804;49.214;12.276;2022-10-31T13:33:01;12.82;;;3.70;;
48993;SDS011;34804;49.214;12.276;2022-10-31T13:38:28;11.27;;;3.88;;
48993;SDS011;34804;49.214;12.276;2022-10-31T13:41:31;13.70;;;3.45;;
48993;SDS011;34804;49.214;12.276;2022-10-31T13:44:18;8.40;;;3.15;;
48993;SDS011;34804;49.214;12.276;2022-10-31T13:46:50;14.07;;;3.65;;
48993;SDS011;34804;49.214;12.276;2022-10-31T13:49:42;11.07;;;3.50;;
48993;SDS011;34804;49.214;12.276;2022-10-31T13:54:49;10.07;;;3.42;;
48993;SDS011;34804;49.214;12.276;2022-10-31T13:57:29;10.38;;;3.45;;
48993;SDS011;34804;49.214;12.276;2022-10-31T14:00:00;10.48;;;3.60;;
48993;SDS011;34804;49.214;12.276;2022-10-31T14:02:34;8.23;;;3.47;;
48993;SDS011;34804;49.214;12.276;2022-10-31T14:07:35;11.60;;;3.78;;
48993;SDS011;34804;49.214;12.276;2022-10-31T14:10:20;12.45;;;3.90;;
48993;SDS011;34804;49.214;12.276;2022-10-31T14:13:13;9.20;;;4.22;;
48993;SDS011;34804;49.214;12.276;2022-10-31T14:16:00;9.00;;;3.70;;
48993;SDS011;34804;49.214;12.276;2022-10-31T14:18:33;10.68;;;4.50;;
48993;SDS011;34804;49.214;12.276;2022-10-31T14:23:41;7.25;;;3.88;;
48993;SDS011;34804;49.214;12.276;2022-10-31T14:28:53;11.50;;;4.70;;
48993;SDS011;34804;49.214;12.276;2022-10-31T14:31:32;10.00;;;4.90;;
48993;SDS011;34804;49.214;12.276;2022-10-31T14:34:06;10.55;;;4.32;;
48993;SDS011;34804;49.214;12.276;2022-10-31T14:42:49;13.73;;;4.32;;
48993;SDS011;34804;49.214;12.276;2022-10-31T14:45:34;9.88;;;4.25;;
48993;SDS011;34804;49.214;12.276;2022-10-31T14:48:22;10.55;;;4.35;;
48993;SDS011;34804;49.214;12.276;2022-10-31T14:51:01;12.60;;;4.28;;
48993;SDS011;34804;49.214;12.276;2022-10-31T14:53:39;9.48;;;4.25;;
48993;SDS011;34804;49.214;12.276;2022-10-31T14:56:20;11.85;;;4.63;;
48993;SDS011;34804;49.214;12.276;2022-10-31T14:58:57;8.32;;;4.20;;
48993;SDS011;34804;49.214;12.276;2022-10-31T15:01:29;10.85;;;4.55;;
48993;SDS011;34804;49.214;12.276;2022-10-31T15:07:13;11.52;;;4.50;;
48993;SDS011;34804;49.214;12.276;2022-10-31T15:10:00;12.13;;;4.50;;
48993;SDS011;34804;49.214;12.276;2022-10-31T15:12:33;12.90;;;4.55;;
48993;SDS011;34804;49.214;12.276;2022-10-31T15:15:13;10.00;;;4.40;;
48993;SDS011;34804;49.214;12.276;2022-10-31T15:17:43;9.07;;;4.22;;
48993;SDS011;34804;49.214;12.276;2022-10-31T15:20:12;8.77;;;4.35;;
48993;SDS011;34804;49.214;12.276;2022-10-31T15:22:45;10.98;;;4.55;;
48993;SDS011;34804;49.214;12.276;2022-10-31T15:25:16;9.00;;;4.50;;
48993;SDS011;34804;49.214;12.276;2022-10-31T15:27:48;12.45;;;4.38;;
48993;SDS011;34804;49.214;12.276;2022-10-31T15:30:18;10.73;;;4.53;;
48993;SDS011;34804;49.214;12.276;2022-10-31T15:32:46;7.43;;;4.50;;
48993;SDS011;34804;49.214;12.276;2022-10-31T15:37:57;9.32;;;5.13;;
48993;SDS011;34804;49.214;12.276;2022-10-31T15:40:26;8.57;;;4.60;;
48993;SDS011;34804;49.214;12.276;2022-10-31T15:43:00;9.45;;;4.80;;
48993;SDS011;34804;49.214;12.276;2022-10-31T15:45:30;13.30;;;5.15;;
48993;SDS011;34804;49.214;12.276;2022-10-31T15:48:02;11.10;;;5.13;;
48993;SDS011;34804;49.214;12.276;2022-10-31T15:50:50;11.02;;;5.82;;
48993;SDS011;34804;49.214;12.276;2022-10-31T15:53:24;30.98;;;16.50;;
48993;SDS011;34804;49.214;12.276;2022-10-31T15:55:56;36.85;;;20.33;;
48993;SDS011;34804;49.214;12.276;2022-10-31T16:01:03;19.95;;;11.18;;
48993;SDS011;34804;49.214;12.276;2022-10-31T16:03:32;19.42;;;9.98;;
48993;SDS011;34804;49.214;12.276;2022-10-31T16:06:04;11.15;;;4.90;;
48993;SDS011;34804;49.214;12.276;2022-10-31T16:08:34;8.90;;;4.65;;
48993;SDS011;34804;49.214;12.276;2022-10-31T16:11:14;10.50;;;4.70;;
48993;SDS011;34804;49.214;12.276;2022-10-31T16:13:56;8.98;;;4.40;;
48993;SDS011;34804;49.214;12.276;2022-10-31T16:16:24;8.00;;;4.90;;
48993;SDS011;34804;49.214;12.276;2022-10-31T16:19:11;7.68;;;4.68;;
48993;SDS011;34804;49.214;12.276;2022-10-31T16:21:44;9.30;;;4.72;;
48993;SDS011;34804;49.214;12.276;2022-10-31T16:24:15;10.57;;;5.43;;
48993;SDS011;34804;49.214;12.276;2022-10-31T16:26:57;9.45;;;4.70;;
48993;SDS011;34804;49.214;12.276;2022-10-31T16:32:30;11.27;;;4.70;;
48993;SDS011;34804;49.214;12.276;2022-10-31T16:37:36;10.40;;;4.50;;
48993;SDS011;34804;49.214;12.276;2022-10-31T16:40:04;12.02;;;5.60;;
48993;SDS011;34804;49.214;12.276;2022-10-31T16:42:31;11.38;;;5.25;;
48993;SDS011;34804;49.214;12.276;2022-10-31T16:44:58;10.82;;;4.65;;
48993;SDS011;34804;49.214;12.276;2022-10-31T16:47:26;10.02;;;5.55;;
48993;SDS011;34804;49.214;12.276;2022-10-31T16:49:54;15.63;;;5.60;;
48993;SDS011;34804;49.214;12.276;2022-10-31T16:52:20;10.65;;;5.30;;
48993;SDS011;34804;49.214;12.276;2022-10-31T16:54:47;12.45;;;5.97;;
48993;SDS011;34804;49.214;12.276;2022-10-31T16:57:15;10.85;;;5.80;;
48993;SDS011;34804;49.214;12.276;2022-10-31T16:59:51;13.32;;;5.95;;
48993;SDS011;34804;49.214;12.276;2022-10-31T17:02:19;13.25;;;6.22;;
48993;SDS011;34804;49.214;12.276;2022-10-31T17:04:47;13.45;;;7.70;;
48993;SDS011;34804;49.214;12.276;2022-10-31T17:07:19;12.68;;;6.72;;
48993;SDS011;34804;49.214;12.276;2022-10-31T17:09:45;9.32;;;4.97;;
48993;SDS011;34804;49.214;12.276;2022-10-31T17:12:14;12.55;;;5.00;;